createdAt,value
2018-02-21T00:04:13.168Z,83.34
2018-02-21T00:06:39.731Z,83.32
2018-02-21T00:09:06.471Z,83.65
2018-02-21T00:11:33.027Z,83.32
2018-02-21T00:13:59.734Z,83.39
2018-02-21T00:16:26.326Z,83.73
2018-02-21T00:18:53.730Z,83.31
2018-02-21T00:21:20.279Z,83.31
2018-02-21T00:23:47.601Z,83.36
2018-02-21T00:26:14.471Z,82.96
2018-02-21T00:28:41.043Z,83.15
2018-02-21T00:31:08.319Z,83.27
2018-02-21T00:33:34.878Z,83.47
2018-02-21T00:36:01.490Z,83.18
2018-02-21T00:38:28.029Z,83.01
2018-02-21T00:40:54.609Z,83.68
2018-02-21T00:43:21.178Z,83.87
2018-02-21T00:45:48.475Z,84.06
2018-02-21T00:48:15.114Z,84.04
2018-02-21T00:50:41.679Z,83.71
2018-02-21T00:53:08.271Z,84.02
2018-02-21T00:55:34.846Z,84.05
2018-02-21T00:58:01.434Z,84.02
2018-02-21T01:00:28.036Z,83.52
2018-02-21T01:02:54.594Z,83.96
2018-02-21T01:05:22.069Z,83.93
2018-02-21T01:07:48.632Z,84.15
2018-02-21T01:10:15.197Z,84.29
2018-02-21T01:12:41.778Z,84.32
2018-02-21T01:15:08.362Z,84.23
2018-02-21T01:17:35.738Z,84.20
2018-02-21T01:20:03.053Z,83.85
2018-02-21T01:22:29.902Z,83.75
2018-02-21T01:24:56.435Z,84.02
2018-02-21T01:27:23.068Z,84.48
2018-02-21T01:29:49.643Z,84.12
2018-02-21T01:32:16.951Z,83.98
2018-02-21T01:34:43.515Z,84.40
2018-02-21T01:37:10.092Z,84.43
2018-02-21T01:39:36.652Z,84.28
2018-02-21T01:42:03.201Z,84.23
2018-02-21T01:44:29.790Z,83.60
2018-02-21T01:46:57.111Z,83.59
2018-02-21T01:49:23.719Z,83.47
2018-02-21T01:51:50.274Z,83.75
2018-02-21T01:54:16.847Z,84.08
2018-02-21T01:56:43.405Z,83.34
2018-02-21T01:59:09.946Z,83.74
2018-02-21T02:01:36.555Z,84.26
2018-02-21T02:04:03.271Z,84.41
2018-02-21T02:06:30.606Z,84.15
2018-02-21T02:08:57.166Z,83.85
2018-02-21T02:11:24.066Z,84.05
2018-02-21T02:13:50.646Z,84.28
2018-02-21T02:16:17.227Z,84.49
2018-02-21T02:18:43.797Z,84.80
2018-02-21T02:21:10.355Z,84.77
2018-02-21T02:23:37.966Z,84.83
2018-02-21T02:26:04.525Z,85.08
2018-02-21T02:28:31.082Z,85.33
2018-02-21T02:30:58.420Z,85.18
2018-02-21T02:33:25.702Z,85.31
2018-02-21T02:35:53.079Z,85.11
2018-02-21T02:38:38.258Z,85.45
2018-02-21T02:41:04.835Z,85.47
2018-02-21T02:43:31.463Z,85.44
2018-02-21T02:45:58.026Z,85.49
2018-02-21T02:48:24.680Z,85.34
2018-02-21T02:50:52.146Z,85.75
2018-02-21T02:53:19.465Z,85.72
2018-02-21T02:55:46.027Z,85.55
2018-02-21T02:58:13.343Z,85.56
2018-02-21T03:00:39.918Z,85.63
2018-02-21T03:03:07.423Z,85.49
2018-02-21T03:05:33.980Z,85.52
2018-02-21T03:08:00.549Z,85.75
2018-02-21T03:10:27.878Z,85.86
2018-02-21T03:12:54.440Z,85.83
2018-02-21T03:15:21.011Z,85.62
2018-02-21T03:17:47.599Z,85.82
2018-02-21T03:20:14.902Z,85.23
2018-02-21T03:22:41.593Z,85.03
2018-02-21T03:25:09.169Z,85.47
2018-02-21T03:27:36.444Z,85.65
2018-02-21T03:30:03.035Z,85.79
2018-02-21T03:32:29.622Z,85.46
2018-02-21T03:34:56.251Z,85.54
2018-02-21T03:37:22.789Z,85.54
2018-02-21T03:39:49.374Z,84.86
2018-02-21T03:42:16.274Z,84.88
2018-02-21T03:44:42.850Z,85.39
2018-02-21T03:47:09.404Z,84.92
2018-02-21T03:49:36.014Z,84.94
2018-02-21T03:52:02.595Z,85.20
2018-02-21T03:54:29.239Z,85.18
2018-02-21T03:56:55.826Z,85.22
2018-02-21T03:59:22.402Z,84.90
2018-02-21T04:01:49.687Z,85.34
2018-02-21T04:04:16.257Z,85.19
2018-02-21T04:06:43.166Z,85.13
2018-02-21T04:09:09.735Z,85.05
2018-02-21T04:11:36.341Z,85.21
2018-02-21T04:14:02.890Z,85.11
2018-02-21T04:16:29.487Z,85.06
2018-02-21T04:19:00.037Z,85.15
2018-02-21T04:21:26.624Z,85.13
2018-02-21T04:23:53.162Z,85.23
2018-02-21T04:26:20.688Z,85.83
2018-02-21T04:28:47.246Z,86.14
2018-02-21T04:31:13.812Z,86.33
2018-02-21T04:33:41.130Z,86.53
2018-02-21T04:36:07.687Z,86.37
2018-02-21T04:38:36.118Z,86.11
2018-02-21T04:41:02.732Z,86.47
2018-02-21T04:43:29.289Z,86.24
2018-02-21T04:45:55.874Z,86.18
2018-02-21T04:48:23.175Z,86.01
2018-02-21T04:50:49.750Z,85.89
2018-02-21T04:53:17.104Z,86.11
2018-02-21T04:55:49.783Z,86.02
2018-02-21T05:11:41.998Z,85.51
2018-02-21T05:14:09.363Z,85.50
2018-02-21T05:16:35.938Z,85.47
2018-02-21T05:19:02.538Z,85.38
2018-02-21T05:21:29.270Z,85.38
2018-02-21T05:23:55.834Z,85.66
2018-02-21T05:26:23.178Z,85.61
2018-02-21T05:28:49.979Z,85.53
2018-02-21T05:31:16.549Z,85.54
2018-02-21T05:33:43.091Z,85.23
2018-02-21T05:36:09.705Z,85.48
2018-02-21T05:38:36.308Z,85.73
2018-02-21T05:41:02.950Z,85.45
2018-02-21T05:43:29.518Z,85.50
2018-02-21T05:45:56.131Z,85.44
2018-02-21T05:48:22.657Z,85.25
2018-02-21T05:50:49.207Z,85.28
2018-02-21T05:53:15.799Z,85.70
2018-02-21T05:55:43.090Z,85.50
2018-02-21T05:58:10.499Z,85.87
2018-02-21T06:00:37.825Z,85.96
2018-02-21T06:03:04.362Z,85.74
2018-02-21T06:05:31.722Z,85.89
2018-02-21T06:07:58.347Z,85.32
2018-02-21T06:10:24.909Z,85.41
2018-02-21T06:12:52.339Z,85.05
2018-02-21T06:15:18.894Z,85.32
2018-02-21T06:17:46.205Z,85.50
2018-02-21T06:20:13.038Z,85.79
2018-02-21T06:22:39.624Z,85.92
2018-02-21T06:25:06.949Z,85.92
2018-02-21T06:27:33.585Z,86.08
2018-02-21T06:30:00.132Z,86.41
2018-02-21T06:32:26.706Z,86.32
2018-02-21T06:34:53.262Z,86.39
2018-02-21T06:37:19.854Z,86.21
2018-02-21T06:39:47.270Z,85.91
2018-02-21T06:42:13.842Z,86.16
2018-02-21T06:44:41.154Z,86.37
2018-02-21T06:47:07.726Z,86.46
2018-02-21T06:49:34.302Z,86.38
2018-02-21T06:52:00.846Z,86.48
2018-02-21T06:54:27.441Z,86.20
2018-02-21T06:56:53.989Z,86.31
2018-02-21T06:59:20.788Z,86.04
2018-02-21T07:01:47.398Z,85.99
2018-02-21T07:04:14.673Z,86.06
2018-02-21T07:06:41.242Z,86.13
2018-02-21T07:09:08.537Z,85.93
2018-02-21T07:11:35.120Z,86.01
2018-02-21T07:14:01.678Z,86.07
2018-02-21T07:16:28.295Z,85.78
2018-02-21T07:18:54.887Z,85.46
2018-02-21T07:21:21.457Z,85.06
2018-02-21T07:23:48.134Z,85.35
2018-02-21T07:26:15.416Z,85.47
2018-02-21T07:28:41.968Z,85.48
2018-02-21T07:31:08.529Z,85.38
2018-02-21T07:33:35.076Z,84.81
2018-02-21T07:36:01.979Z,84.76
2018-02-21T07:38:28.558Z,85.13
2018-02-21T07:40:55.147Z,84.86
2018-02-21T07:43:21.738Z,84.88
2018-02-21T07:45:49.051Z,84.94
2018-02-21T07:48:15.626Z,84.95
2018-02-21T07:50:42.199Z,84.91
2018-02-21T07:53:09.071Z,84.56
2018-02-21T07:55:35.643Z,84.65
2018-02-21T07:58:03.643Z,84.27
2018-02-21T08:00:30.210Z,84.02
2018-02-21T08:02:56.813Z,83.55
2018-02-21T08:05:23.376Z,83.39
2018-02-21T08:07:49.937Z,83.57
2018-02-21T08:10:16.514Z,83.49
2018-02-21T08:12:43.223Z,83.42
2018-02-21T08:15:10.546Z,82.94
2018-02-21T08:17:37.140Z,82.69
2018-02-21T08:20:05.438Z,81.68
2018-02-21T08:22:32.063Z,81.68
2018-02-21T08:24:58.627Z,81.57
2018-02-21T08:27:25.164Z,81.26
2018-02-21T08:29:51.742Z,81.42
2018-02-21T08:32:18.298Z,81.39
2018-02-21T08:34:44.940Z,81.52
2018-02-21T08:37:12.322Z,81.66
2018-02-21T08:39:38.927Z,81.70
2018-02-21T08:42:05.502Z,81.47
2018-02-21T08:44:32.082Z,81.72
2018-02-21T08:46:59.408Z,81.41
2018-02-21T08:49:25.986Z,81.23
2018-02-21T08:51:53.303Z,81.54
2018-02-21T08:54:19.846Z,81.19
2018-02-21T08:56:46.451Z,81.30
2018-02-21T08:59:12.998Z,80.77
2018-02-21T09:01:39.550Z,80.64
2018-02-21T09:04:06.138Z,79.90
2018-02-21T09:06:33.045Z,79.46
2018-02-21T09:09:00.355Z,79.72
2018-02-21T09:11:26.906Z,80.27
2018-02-21T09:13:53.494Z,80.22
2018-02-21T09:16:20.783Z,79.88
2018-02-21T09:18:47.366Z,79.69
2018-02-21T09:21:14.679Z,79.42
2018-02-21T09:23:41.247Z,79.58
2018-02-21T09:26:08.202Z,79.42
2018-02-21T09:28:35.524Z,79.07
2018-02-21T09:31:02.666Z,79.21
2018-02-21T09:33:29.975Z,78.94
2018-02-21T09:35:56.598Z,78.78
2018-02-21T09:38:23.924Z,78.31
2018-02-21T09:40:50.500Z,77.96
2018-02-21T09:43:17.079Z,78.04
2018-02-21T09:45:43.742Z,78.02
2018-02-21T09:48:10.317Z,77.87
2018-02-21T09:50:36.881Z,77.62
2018-02-21T09:53:03.471Z,76.97
2018-02-21T09:55:30.058Z,77.24
2018-02-21T09:57:56.630Z,77.16
2018-02-21T10:00:23.948Z,76.71
2018-02-21T10:02:50.527Z,76.79
2018-02-21T10:05:17.121Z,76.54
2018-02-21T10:07:43.740Z,76.19
2018-02-21T10:10:10.552Z,76.66
2018-02-21T10:12:37.908Z,76.29
2018-02-21T10:15:05.256Z,76.12
2018-02-21T10:17:32.621Z,75.84
2018-02-21T10:19:59.919Z,75.87
2018-02-21T10:22:27.276Z,75.22
2018-02-21T10:24:53.918Z,75.36
2018-02-21T10:27:20.481Z,75.58
2018-02-21T10:29:47.072Z,75.14
2018-02-21T10:32:14.376Z,74.65
2018-02-21T10:34:40.967Z,74.99
2018-02-21T10:37:07.603Z,74.05
2018-02-21T10:39:34.183Z,74.25
2018-02-21T10:42:01.315Z,74.53
2018-02-21T10:44:28.639Z,74.34
2018-02-21T10:46:55.210Z,74.92
2018-02-21T10:49:22.045Z,74.68
2018-02-21T10:51:48.616Z,75.39
2018-02-21T10:54:15.908Z,74.79
2018-02-21T10:56:42.479Z,75.49
2018-02-21T10:59:09.162Z,75.22
2018-02-21T11:01:35.842Z,74.99
2018-02-21T11:04:03.362Z,74.81
2018-02-21T11:06:30.937Z,74.61
2018-02-21T11:08:57.556Z,74.07
2018-02-21T11:11:24.137Z,73.95
2018-02-21T11:13:50.753Z,73.76
2018-02-21T11:16:17.338Z,73.46
2018-02-21T11:18:44.954Z,73.31
2018-02-21T11:21:12.257Z,73.54
2018-02-21T11:23:38.908Z,74.23
2018-02-21T11:26:06.242Z,73.77
2018-02-21T11:28:32.818Z,72.93
2018-02-21T11:30:59.643Z,73.61
2018-02-21T11:33:26.264Z,72.95
2018-02-21T11:35:52.851Z,73.45
2018-02-21T11:38:19.422Z,72.77
2018-02-21T11:40:45.974Z,72.19
2018-02-21T11:43:13.329Z,72.45
2018-02-21T11:45:39.907Z,72.32
2018-02-21T11:48:06.530Z,72.55
2018-02-21T11:50:33.505Z,72.19
2018-02-21T11:53:00.789Z,71.49
2018-02-21T11:55:28.086Z,71.91
2018-02-21T11:57:54.657Z,72.39
2018-02-21T12:00:21.240Z,72.47
2018-02-21T12:02:47.942Z,73.55
2018-02-21T12:05:14.503Z,72.72
2018-02-21T12:07:41.946Z,72.63
2018-02-21T12:10:09.272Z,72.32
2018-02-21T12:12:35.825Z,71.69
2018-02-21T12:15:02.496Z,72.65
2018-02-21T12:17:29.093Z,72.68
2018-02-21T12:19:55.671Z,72.53
2018-02-21T12:22:22.261Z,73.19
2018-02-21T12:24:48.857Z,73.37
2018-02-21T12:27:15.466Z,72.97
2018-02-21T12:29:42.795Z,73.45
2018-02-21T12:32:10.178Z,73.21
2018-02-21T12:34:36.776Z,73.19
2018-02-21T12:37:04.096Z,73.34
2018-02-21T12:39:31.615Z,72.87
2018-02-21T12:41:58.209Z,72.58
2018-02-21T12:44:24.820Z,71.64
2018-02-21T12:46:51.411Z,70.70
2018-02-21T12:49:18.003Z,70.14
2018-02-21T12:51:44.599Z,70.31
2018-02-21T12:54:11.943Z,70.62
2018-02-21T12:56:38.512Z,70.71
2018-02-21T12:59:05.072Z,70.92
2018-02-21T13:01:31.684Z,71.43
2018-02-21T13:03:58.973Z,71.24
2018-02-21T13:06:25.533Z,71.30
2018-02-21T13:08:52.091Z,72.17
2018-02-21T13:11:19.441Z,71.75
2018-02-21T13:13:46.821Z,70.29
2018-02-21T13:16:13.482Z,70.28
2018-02-21T13:18:40.861Z,70.39
2018-02-21T13:21:07.478Z,70.91
2018-02-21T13:23:34.059Z,70.40
2018-02-21T13:26:01.385Z,70.95
2018-02-21T13:28:28.719Z,70.70
2018-02-21T13:30:55.338Z,70.31
2018-02-21T13:33:21.934Z,70.33
2018-02-21T13:35:48.509Z,69.81
2018-02-21T13:38:15.045Z,70.61
2018-02-21T13:40:41.906Z,70.87
2018-02-21T13:43:08.449Z,70.24
2018-02-21T13:45:35.776Z,70.47
2018-02-21T13:48:02.350Z,71.12
2018-02-21T13:50:28.940Z,70.85
2018-02-21T13:52:55.618Z,69.94
2018-02-21T13:55:22.219Z,69.54
2018-02-21T13:57:48.794Z,70.30
2018-02-21T14:00:15.388Z,70.27
2018-02-21T14:02:41.993Z,69.77
2018-02-21T14:05:08.626Z,69.51
2018-02-21T14:07:35.228Z,69.56
2018-02-21T14:10:02.485Z,69.64
2018-02-21T14:12:29.066Z,69.69
2018-02-21T14:14:56.770Z,69.70
2018-02-21T14:17:23.372Z,69.79
2018-02-21T14:19:49.979Z,70.54
2018-02-21T14:22:17.331Z,70.96
2018-02-21T14:24:43.941Z,71.04
2018-02-21T14:27:10.528Z,71.25
2018-02-21T14:29:37.847Z,70.88
2018-02-21T14:32:04.442Z,71.03
2018-02-21T14:34:31.320Z,71.90
2018-02-21T14:36:57.918Z,72.09
2018-02-21T14:39:24.526Z,71.91
2018-02-21T14:41:51.998Z,71.42
2018-02-21T14:44:18.607Z,71.59
2018-02-21T14:46:45.186Z,71.96
2018-02-21T14:49:11.771Z,71.33
2018-02-21T14:51:38.412Z,71.65
2018-02-21T14:54:05.796Z,72.08
2018-02-21T14:56:32.789Z,71.05
2018-02-21T14:58:59.424Z,71.83
2018-02-21T15:01:26.004Z,71.58
2018-02-21T15:03:52.586Z,71.59
2018-02-21T15:06:19.454Z,71.69
2018-02-21T15:08:46.014Z,71.48
2018-02-21T15:11:12.583Z,70.86
2018-02-21T15:13:39.309Z,71.14
2018-02-21T15:16:06.679Z,71.31
2018-02-21T15:18:33.291Z,71.41
2018-02-21T15:20:59.875Z,71.32
2018-02-21T15:23:26.474Z,71.64
2018-02-21T15:25:53.819Z,71.66
2018-02-21T15:28:20.418Z,72.16
2018-02-21T15:30:47.070Z,72.39
2018-02-21T15:33:13.632Z,72.28
2018-02-21T15:35:40.995Z,72.20
2018-02-21T15:38:07.643Z,72.34
2018-02-21T15:40:34.225Z,72.96
2018-02-21T15:43:00.795Z,72.89
2018-02-21T15:45:28.144Z,73.20
2018-02-21T15:47:54.754Z,73.22
2018-02-21T15:50:21.342Z,73.15
2018-02-21T15:52:47.949Z,73.28
2018-02-21T15:55:15.288Z,73.20
2018-02-21T15:57:42.739Z,73.30
2018-02-21T16:00:09.363Z,73.81
2018-02-21T16:02:35.973Z,74.14
2018-02-21T16:05:02.562Z,74.54
2018-02-21T16:07:29.152Z,74.88
2018-02-21T16:09:55.814Z,74.15
2018-02-21T16:12:22.441Z,74.49
2018-02-21T16:14:49.075Z,74.36
2018-02-21T16:17:15.652Z,74.03
2018-02-21T16:19:43.014Z,74.37
2018-02-21T16:22:10.616Z,74.49
2018-02-21T16:24:37.219Z,74.17
2018-02-21T16:27:04.536Z,74.37
2018-02-21T16:29:31.876Z,74.15
2018-02-21T16:31:58.567Z,74.55
2018-02-21T16:34:25.188Z,74.30
2018-02-21T16:36:51.801Z,74.55
2018-02-21T16:39:18.433Z,74.67
2018-02-21T16:41:45.040Z,74.18
2018-02-21T16:44:11.923Z,74.27
2018-02-21T16:59:27.024Z,73.40
2018-02-21T17:01:54.370Z,73.02
2018-02-21T17:04:21.674Z,73.14
2018-02-21T17:06:48.324Z,72.92
2018-02-21T17:09:15.034Z,73.19
2018-02-21T17:11:41.760Z,73.16
2018-02-21T17:14:08.350Z,73.32
2018-02-21T17:16:34.971Z,73.35
2018-02-21T17:19:01.566Z,73.06
2018-02-21T17:21:28.160Z,73.31
2018-02-21T17:23:54.734Z,73.13
2018-02-21T17:26:21.618Z,73.46
2018-02-21T17:28:48.203Z,73.33
2018-02-21T17:31:15.794Z,73.17
2018-02-21T17:33:43.360Z,73.02
2018-02-21T17:36:09.956Z,72.83
2018-02-21T17:38:37.287Z,73.22
2018-02-21T17:41:10.041Z,73.28
2018-02-21T17:43:36.695Z,74.31
2018-02-21T17:46:03.311Z,74.68
2018-02-21T17:48:29.975Z,74.49
2018-02-21T17:50:56.573Z,74.47
2018-02-21T17:53:23.273Z,75.05
2018-02-21T17:55:50.574Z,75.13
2018-02-21T17:58:17.153Z,75.73
2018-02-21T18:00:43.797Z,75.58
2018-02-21T18:03:11.123Z,75.86
2018-02-21T18:05:37.941Z,75.83
2018-02-21T18:08:04.531Z,75.68
2018-02-21T18:10:31.169Z,76.02
2018-02-21T18:12:58.563Z,75.80
2018-02-21T18:15:25.154Z,76.18
2018-02-21T18:17:51.750Z,76.64
2018-02-21T18:20:18.354Z,76.39
2018-02-21T18:22:45.947Z,75.75
2018-02-21T18:25:13.258Z,76.06
2018-02-21T18:27:39.873Z,76.35
2018-02-21T18:30:06.510Z,76.61
2018-02-21T18:32:33.146Z,76.86
2018-02-21T18:34:59.760Z,77.11
2018-02-21T18:37:26.350Z,77.07
2018-02-21T18:39:53.812Z,77.04
2018-02-21T18:42:20.398Z,76.75
2018-02-21T18:44:46.968Z,77.31
2018-02-21T18:47:13.571Z,77.07
2018-02-21T18:49:40.236Z,77.41
2018-02-21T18:52:07.592Z,77.46
2018-02-21T18:54:34.911Z,77.82
2018-02-21T18:57:01.499Z,77.58
2018-02-21T18:59:28.132Z,77.35
2018-02-21T19:01:55.473Z,77.62
2018-02-21T19:04:22.164Z,77.91
2018-02-21T19:06:48.835Z,77.87
2018-02-21T19:09:15.446Z,77.81
2018-02-21T19:11:42.043Z,78.08
2018-02-21T19:14:08.676Z,77.97
2018-02-21T19:16:35.288Z,78.00
2018-02-21T19:19:01.855Z,78.04
2018-02-21T19:21:28.462Z,78.34
2018-02-21T19:23:55.059Z,78.44
2018-02-21T19:26:21.675Z,78.26
2018-02-21T19:28:48.281Z,78.14
2018-02-21T19:31:16.063Z,78.50
2018-02-21T19:33:42.650Z,78.85
2018-02-21T19:36:09.233Z,78.89
2018-02-21T19:38:36.624Z,78.62
2018-02-21T19:41:03.248Z,78.64
2018-02-21T19:43:29.862Z,78.97
2018-02-21T19:45:57.184Z,78.54
2018-02-21T19:48:23.815Z,78.37
2018-02-21T19:50:50.386Z,77.95
2018-02-21T19:53:17.741Z,77.79
2018-02-21T19:55:44.350Z,77.78
2018-02-21T19:58:10.942Z,77.83
2018-02-21T20:00:37.573Z,77.72
2018-02-21T20:03:04.257Z,77.43
2018-02-21T20:05:30.959Z,77.35
2018-02-21T20:07:57.597Z,78.21
2018-02-21T20:10:24.188Z,78.15
2018-02-21T20:12:50.791Z,78.48
2018-02-21T20:15:17.385Z,78.04
2018-02-21T20:17:43.966Z,78.42
2018-02-21T20:20:11.397Z,77.60
2018-02-21T20:22:38.767Z,77.40
2018-02-21T20:25:05.430Z,77.82
2018-02-21T20:27:32.740Z,78.29
2018-02-21T20:29:59.355Z,77.82
2018-02-21T20:32:26.706Z,77.71
2018-02-21T20:34:54.027Z,78.39
2018-02-21T20:37:20.651Z,78.48
2018-02-21T20:39:47.582Z,78.13
2018-02-21T20:42:14.190Z,78.80
2018-02-21T20:44:40.798Z,78.39
2018-02-21T20:47:07.455Z,78.53
2018-02-21T20:49:34.026Z,78.49
2018-02-21T20:52:00.664Z,79.05
2018-02-21T20:54:27.284Z,78.83
2018-02-21T20:56:53.939Z,78.97
2018-02-21T20:59:21.066Z,79.62
2018-02-21T21:01:47.626Z,79.65
2018-02-21T21:04:14.219Z,79.24
2018-02-21T21:06:41.614Z,80.29
2018-02-21T21:09:08.215Z,80.48
2018-02-21T21:11:34.811Z,80.26
2018-02-21T21:14:01.408Z,80.17
2018-02-21T21:16:28.029Z,80.14
2018-02-21T21:18:54.632Z,80.43
2018-02-21T21:21:21.560Z,80.48
2018-02-21T21:23:48.066Z,80.59
2018-02-21T21:26:14.649Z,80.76
2018-02-21T21:28:41.282Z,80.98
2018-02-21T21:31:07.993Z,81.10
2018-02-21T21:33:35.260Z,81.37
2018-02-21T21:36:01.861Z,81.03
2018-02-21T21:38:28.495Z,80.95
2018-02-21T21:40:55.343Z,81.32
2018-02-21T21:43:21.934Z,81.30
2018-02-21T21:45:48.555Z,81.40
2018-02-21T21:48:15.314Z,81.85
2018-02-21T21:50:41.923Z,81.47
2018-02-21T21:53:08.478Z,81.32
2018-02-21T21:55:35.075Z,81.42
2018-02-21T21:58:01.762Z,81.29
2018-02-21T22:00:28.580Z,81.87
2018-02-21T22:02:57.901Z,81.96
2018-02-21T22:05:24.544Z,81.70
2018-02-21T22:07:51.151Z,81.67
2018-02-21T22:10:17.727Z,81.99
2018-02-21T22:12:45.342Z,82.03
2018-02-21T22:15:11.945Z,82.14
2018-02-21T22:17:38.514Z,82.06
2018-02-21T22:20:05.155Z,82.00
2018-02-21T22:22:31.726Z,82.40
2018-02-21T22:24:59.122Z,82.41
2018-02-21T22:27:25.690Z,82.33
2018-02-21T22:29:52.281Z,82.11
2018-02-21T22:32:19.587Z,81.88
2018-02-21T22:34:46.952Z,81.97
2018-02-21T22:37:13.518Z,81.87
2018-02-21T22:39:40.848Z,81.95
2018-02-21T22:42:07.474Z,81.89
2018-02-21T22:44:34.024Z,81.89
2018-02-21T22:47:01.367Z,81.91
2018-02-21T22:49:27.932Z,82.53
2018-02-21T22:51:54.582Z,82.55
2018-02-21T22:54:21.870Z,82.21
2018-02-21T22:56:48.478Z,82.42
2018-02-21T22:59:15.037Z,81.94
2018-02-21T23:01:41.643Z,82.14
2018-02-21T23:04:08.225Z,82.35
2018-02-21T23:06:34.810Z,82.28
2018-02-21T23:09:02.230Z,82.10
2018-02-21T23:11:29.565Z,81.75
2018-02-21T23:13:56.168Z,81.66
2018-02-21T23:16:22.763Z,82.01
2018-02-21T23:18:50.147Z,82.18
2018-02-21T23:21:17.463Z,82.19
2018-02-21T23:23:44.115Z,81.97
2018-02-21T23:26:10.687Z,81.84
2018-02-21T23:28:37.278Z,81.50
2018-02-21T23:31:04.543Z,81.76
2018-02-21T23:33:31.125Z,82.22
2018-02-21T23:35:57.702Z,82.15
2018-02-21T23:38:24.274Z,82.13
2018-02-21T23:40:51.161Z,82.25
2018-02-21T23:43:17.731Z,82.41
2018-02-21T23:45:45.070Z,82.47
2018-02-21T23:48:11.664Z,82.17
2018-02-21T23:50:38.234Z,82.39
2018-02-21T23:53:05.670Z,82.47
2018-02-21T23:55:32.267Z,82.26
2018-02-21T23:57:59.666Z,82.47
